Terminal Aerodrome Forecast
Issued by NWS Spokane, WA

Home | Current Version | Previous Version | Text Only | Print | Product List | Glossary On
Versions: 1 2 3 4 5 6 7 8 9 10 11 12
000
FTUS46 KOTX 301736
TAFEAT
TAF
KEAT 301736Z 3018/3118 28005KT P6SM SCT250
     FM301930 12005KT P6SM FEW070 SCT250
     FM310500 32005KT P6SM FEW150 SCT250=

USA.gov is the U.S. government's official web portal to all federal, state and local government web resources and services.